Ruth — 5BEG2 — position and weather

sailwx.info

Track history (hours):
 
Tides and Currents Weather Stations Pressure Air Temp Water Temp Dewpoint Dewpoint Depression Visibility Wind Speed Wind Dir Waves Ship Positions

Ruth

Last reported at 2017-Nov-19 20:16 UTC. Time now 2017-Nov-20 12:09 UTC.
Position N 55°08' E 014°08'.

Length 134 m; draft 8.9 m.

Type: Ship (hazmat cat A). MMSI: 212613000.

Date/timePositionNaut miles runAvg speedWind from/ knotsBaromVisibWave heightAir tempDewpointWater temp
2017-Nov-19 20:16N 55°08' E 014°08'414.3
2017-Nov-19 20:00N 55°11' E 014°12'914.8
2017-Nov-19 19:25N 55°17' E 014°22'615.3
2017-Nov-19 19:00N 55°22' E 014°29'815.7
2017-Nov-19 18:30N 55°27' E 014°40'915.6
2017-Nov-19 17:55N 55°32' E 014°54'715.7
2017-Nov-19 17:30N 55°35' E 015°04'815.8
2017-Nov-19 17:00N 55°39' E 015°16'815.9
2017-Nov-19 16:31N 55°44' E 015°27'815.9
2017-Nov-19 16:00N 55°48' E 015°39'815.8
2017-Nov-19 15:31N 55°52' E 015°52'815.9
2017-Nov-19 15:01N 55°56' E 016°04'815.9
2017-Nov-19 14:31N 55°60' E 016°16'816.0
2017-Nov-19 14:01N 56°04' E 016°29'816.0
2017-Nov-19 13:31N 56°08' E 016°41'815.5
2017-Nov-19 13:00N 56°15' E 016°47'22815.8
2017-Nov-18 22:33N 59°42' E 019°48'216.3
2017-Nov-18 22:27N 59°43' E 019°46'816.4
2017-Nov-18 21:59N 59°49' E 019°36'816.6
2017-Nov-18 21:30N 59°55' E 019°26'816.7
2017-Nov-18 21:00N 60°02' E 019°15'816.7
2017-Nov-18 20:31N 60°08' E 019°04'815.5
2017-Nov-18 20:00N 60°16' E 018°60'916.6
2017-Nov-18 19:30N 60°24' E 018°59'7015.5
2017-Nov-18 14:59N 61°06' E 020°54'714.1
2017-Nov-18 14:31N 61°08' E 021°07'611.7
2017-Nov-18 14:00N 61°06' E 021°19'4 8.1
2017-Nov-18 13:30N 61°08' E 021°26'0 0.0
2017-Nov-18 12:52N 61°08' E 021°26'0 0.0
2017-Nov-18 12:17N 61°08' E 021°26'0 0.0
2017-Nov-18 11:58N 61°08' E 021°26'0 0.0
2017-Nov-18 10:54N 61°08' E 021°26'0 0.0
2017-Nov-18 10:23N 61°08' E 021°26'0 0.0
2017-Nov-18 09:59N 61°08' E 021°26'0 0.0
2017-Nov-18 09:23N 61°08' E 021°26'0 0.0
2017-Nov-18 08:56N 61°08' E 021°26'0 0.0
2017-Nov-18 08:29N 61°08' E 021°26'0 0.0
2017-Nov-18 07:59N 61°08' E 021°26'0 0.0
2017-Nov-18 07:25N 61°08' E 021°26'0 0.0
2017-Nov-18 06:55N 61°08' E 021°26'0 0.0
2017-Nov-18 06:19N 61°08' E 021°26'0 0.0
2017-Nov-18 05:49N 61°08' E 021°26'0 0.0
2017-Nov-18 05:28N 61°08' E 021°26'0 0.0
2017-Nov-18 03:54N 61°08' E 021°26'0 0.0
2017-Nov-18 03:30N 61°08' E 021°26'0 0.0
2017-Nov-18 02:41N 61°08' E 021°26'0 0.0
2017-Nov-18 02:29N 61°08' E 021°26'0 0.0
2017-Nov-18 01:41N 61°08' E 021°26'0 0.0
2017-Nov-18 01:20N 61°08' E 021°26'0 0.0
2017-Nov-18 00:56N 61°08' E 021°26'0 0.0
2017-Nov-18 00:28N 61°08' E 021°26'0 0.0
2017-Nov-17 23:50N 61°08' E 021°26'0 0.0
2017-Nov-17 23:13N 61°08' E 021°26'0 0.0
2017-Nov-17 22:58N 61°08' E 021°26'0 0.3
2017-Nov-17 22:30N 61°08' E 021°26'2 3.9
2017-Nov-17 22:00N 61°07' E 021°23'611.7
2017-Nov-17 21:30N 61°07' E 021°11'612.0
2017-Nov-17 21:00N 61°08' E 020°58'6914.6
2017-Nov-17 16:19N 60°29' E 019°02'414.7
2017-Nov-17 16:00N 60°25' E 019°02'714.6
2017-Nov-17 15:30N 60°17' E 019°01'713.7
2017-Nov-17 15:00N 60°11' E 019°07'713.8
2017-Nov-17 14:30N 60°06' E 019°17'714.1
2017-Nov-17 14:00N 60°01' E 019°26'813.5
2017-Nov-17 13:27N 59°55' E 019°36'612.5
2017-Nov-17 13:00N 59°50' E 019°41'3911.0
2017-Nov-17 09:27N 59°36' E 020°53'511.5
2017-Nov-17 09:00N 59°36' E 021°03'611.3
2017-Nov-17 08:30N 59°35' E 021°15'511.0
2017-Nov-17 08:00N 59°35' E 021°25'611.1
2017-Nov-17 07:30N 59°34' E 021°36'511.0
2017-Nov-17 07:00N 59°34' E 021°47'510.9
2017-Nov-17 06:30N 59°34' E 021°58'510.9
2017-Nov-17 06:00N 59°33' E 022°09'510.8
2017-Nov-17 05:30N 59°33' E 022°19'2411.3
2017-Nov-17 03:25N 59°38' E 023°05'512.3
2017-Nov-17 03:00N 59°39' E 023°15'612.4
2017-Nov-17 02:30N 59°41' E 023°26'612.4
2017-Nov-17 02:00N 59°42' E 023°38'612.5
2017-Nov-17 01:30N 59°44' E 023°50'712.5
2017-Nov-17 00:56N 59°46' E 024°04'712.5
2017-Nov-17 00:21N 59°47' E 024°18'412.7
2017-Nov-17 00:00N 59°48' E 024°27'612.5
2017-Nov-16 23:30N 59°49' E 024°39'612.4
2017-Nov-16 23:00N 59°51' E 024°51'612.6
2017-Nov-16 22:30N 59°52' E 025°03'612.8
2017-Nov-16 22:00N 59°53' E 025°16'612.7
2017-Nov-16 21:30N 59°54' E 025°28'2213.0
2017-Nov-16 19:47N 59°59' E 026°12'413.4
2017-Nov-16 19:30N 59°60' E 026°19'713.4
2017-Nov-16 19:00N 60°01' E 026°32'713.2
2017-Nov-16 18:30N 60°01' E 026°45'713.2
2017-Nov-16 18:00N 59°60' E 026°58'612.6
2017-Nov-16 17:30N 60°02' E 027°10'713.1
2017-Nov-16 17:00N 60°05' E 027°22'713.2
2017-Nov-16 16:30N 60°08' E 027°33'713.0
2017-Nov-16 16:00N 60°12' E 027°44'612.5
2017-Nov-16 15:30N 60°11' E 027°57'612.9
2017-Nov-16 15:00N 60°09' E 028°09'612.7
2017-Nov-16 14:30N 60°07' E 028°21'612.6
2017-Nov-16 14:00N 60°03' E 028°32'612.4
2017-Nov-16 13:30N 60°03' E 028°44'714.5
2017-Nov-16 13:00N 60°03' E 028°59'1512.6
2017-Nov-16 11:50N 60°01' E 029°28'410.4
2017-Nov-16 11:24N 60°00' E 029°37'511.5
2017-Nov-16 11:00N 59°59' E 029°45'611.7
2017-Nov-16 10:30N 59°56' E 029°56'611.5
2017-Nov-16 10:00N 59°54' E 030°06'3 6.8
2017-Nov-16 09:31N 59°52' E 030°12'0 0.0
2017-Nov-16 09:00N 59°52' E 030°12'0 0.0
2017-Nov-16 08:29N 59°52' E 030°12'0 0.0
2017-Nov-16 08:00N 59°52' E 030°12'0 0.0
2017-Nov-16 07:30N 59°52' E 030°12'0 0.0
2017-Nov-16 07:00N 59°52' E 030°12'0 0.0
2017-Nov-16 06:30N 59°52' E 030°12'0 0.0
2017-Nov-16 06:00N 59°52' E 030°12'0 0.0
2017-Nov-16 05:30N 59°52' E 030°12'0 0.0
2017-Nov-16 04:59N 59°52' E 030°12'0 0.0
2017-Nov-16 04:26N 59°52' E 030°12'0 0.0
2017-Nov-16 03:59N 59°52' E 030°12'0 0.0
2017-Nov-16 03:30N 59°52' E 030°12'1 1.8
2017-Nov-16 03:00N 59°53' E 030°11'3 6.7
2017-Nov-16 02:30N 59°54' E 030°05'510.9
2017-Nov-16 02:00N 59°56' E 029°55'510.0
2017-Nov-16 01:30N 59°59' E 029°46'3 6.0
2017-Nov-16 01:00N 59°56' E 029°42'0 0.3
2017-Nov-16 00:30N 59°56' E 029°42'0 0.0
2017-Nov-15 23:59N 59°56' E 029°42'0 0.0
2017-Nov-15 23:29N 59°56' E 029°42'0 0.0
2017-Nov-15 22:59N 59°56' E 029°42'0 0.0
2017-Nov-15 22:29N 59°56' E 029°42'0 0.0
2017-Nov-15 21:56N 59°56' E 029°42'0 0.0
2017-Nov-15 21:28N 59°56' E 029°42'0 0.0
2017-Nov-15 20:58N 59°56' E 029°42'0 0.0
2017-Nov-15 20:25N 59°56' E 029°42'0 0.0
2017-Nov-15 19:43N 59°56' E 029°42'0 0.0
2017-Nov-15 19:28N 59°56' E 029°42'0 0.0
2017-Nov-15 18:39N 59°56' E 029°42'0 0.0
2017-Nov-15 18:27N 59°56' E 029°42'0 0.0
2017-Nov-15 17:54N 59°56' E 029°42'0 0.0
2017-Nov-15 17:18N 59°56' E 029°42'0 0.0
2017-Nov-15 16:56N 59°56' E 029°42'0 0.0
2017-Nov-15 16:29N 59°56' E 029°42'0 0.0
2017-Nov-15 15:59N 59°56' E 029°42'0 0.0
2017-Nov-15 15:30N 59°56' E 029°42'2 3.6
2017-Nov-15 15:00N 59°58' E 029°44'4 7.3
2017-Nov-15 14:30N 59°60' E 029°39'1613.0
2017-Nov-15 13:19N 60°02' E 029°08'414.8
2017-Nov-15 13:00N 60°02' E 028°59'714.6
2017-Nov-15 12:30N 60°02' E 028°44'714.6
2017-Nov-15 12:00N 60°02' E 028°30'714.2
2017-Nov-15 11:30N 60°06' E 028°18'714.2
2017-Nov-15 11:00N 60°09' E 028°04'714.5
2017-Nov-15 10:30N 60°10' E 027°50'713.3
2017-Nov-15 10:00N 60°08' E 027°38'714.4
2017-Nov-15 09:30N 60°04' E 027°25'714.4
2017-Nov-15 09:00N 60°00' E 027°13'713.7
2017-Nov-15 08:30N 59°58' E 027°00'714.4
2017-Nov-15 08:00N 59°59' E 026°46'713.9
2017-Nov-15 07:30N 59°58' E 026°32'714.7
2017-Nov-15 07:00N 59°56' E 026°18'2714.9
2017-Nov-15 05:11N 59°49' E 025°26'314.7
2017-Nov-15 05:00N 59°49' E 025°21'714.8
2017-Nov-15 04:30N 59°47' E 025°06'714.7
2017-Nov-15 04:00N 59°46' E 024°52'714.9
2017-Nov-15 03:30N 59°44' E 024°38'815.0
2017-Nov-15 03:00N 59°43' E 024°23'714.9
2017-Nov-15 02:30N 59°40' E 024°09'814.8
2017-Nov-15 01:56N 59°38' E 023°53'714.8
2017-Nov-15 01:26N 59°35' E 023°39'614.5
2017-Nov-15 01:00N 59°33' E 023°28'1414.7
2017-Nov-15 00:04N 59°29' E 023°02'27214.9
2017-Nov-14 05:49N 56°13' E 017°08'1115.6
2017-Nov-14 05:06N 56°06' E 016°52'215.5
2017-Nov-14 04:59N 56°05' E 016°50'715.6
2017-Nov-14 04:30N 56°00' E 016°39'815.6
2017-Nov-14 04:00N 55°57' E 016°27'815.4
2017-Nov-14 03:30N 55°53' E 016°15'815.4
2017-Nov-14 03:00N 55°49' E 016°03'815.5
2017-Nov-14 02:30N 55°46' E 015°51'815.4
2017-Nov-14 02:00N 55°42' E 015°39'815.5
2017-Nov-14 01:30N 55°38' E 015°26'815.6
2017-Nov-14 01:00N 55°35' E 015°14'815.6
2017-Nov-14 00:30N 55°31' E 015°02'815.5
2017-Nov-14 00:00N 55°27' E 014°50'815.3
2017-Nov-13 23:30N 55°23' E 014°39'815.3
2017-Nov-13 23:00N 55°17' E 014°31'714.7
2017-Nov-13 22:30N 55°12' E 014°23'815.1
2017-Nov-13 22:00N 55°06' E 014°14'186 9.3
2017-Nov-13 02:01N 53°48' E 009°23'816.5
2017-Nov-13 01:30N 53°41' E 009°30'714.7
2017-Nov-13 01:01N 53°35' E 009°37'713.5
2017-Nov-13 00:31N 53°33' E 009°48'4 8.7
2017-Nov-13 00:00N 53°32' E 009°55'0 0.9
2017-Nov-12 23:30N 53°32' E 009°55'0 0.0
2017-Nov-12 23:00N 53°32' E 009°55'0 0.0
2017-Nov-12 22:30N 53°32' E 009°55'0 0.0
2017-Nov-12 22:00N 53°32' E 009°55'0 0.0
2017-Nov-12 21:29N 53°32' E 009°55'0 0.0
2017-Nov-12 20:59N 53°32' E 009°55'0 0.0
2017-Nov-12 20:29N 53°32' E 009°55'0 0.0
2017-Nov-12 19:59N 53°32' E 009°55'0 0.0
2017-Nov-12 19:29N 53°32' E 009°55'0 0.0
2017-Nov-12 18:58N 53°32' E 009°55'0 0.0
2017-Nov-12 18:28N 53°32' E 009°55'0 0.0
2017-Nov-12 17:58N 53°32' E 009°55'0 0.0
2017-Nov-12 17:28N 53°32' E 009°55'0 0.0
2017-Nov-12 17:00N 53°32' E 009°55'0 0.0
2017-Nov-12 16:30N 53°32' E 009°55'0 0.0
2017-Nov-12 16:00N 53°32' E 009°55'0 0.0
2017-Nov-12 15:30N 53°32' E 009°55'0 0.0
2017-Nov-12 15:00N 53°32' E 009°55'0 0.0
2017-Nov-12 14:29N 53°32' E 009°55'0 0.0
2017-Nov-12 13:59N 53°32' E 009°55'0 0.0
2017-Nov-12 13:29N 53°32' E 009°55'0 0.0
2017-Nov-12 12:59N 53°32' E 009°55'0 0.0
2017-Nov-12 12:29N 53°32' E 009°55'0 0.0
2017-Nov-12 11:58N 53°32' E 009°55'0 0.0
2017-Nov-12 11:28N 53°32' E 009°55'0 0.0
2017-Nov-12 10:58N 53°32' E 009°55'0 0.0
2017-Nov-12 10:28N 53°32' E 009°55'0 0.0
2017-Nov-12 10:00N 53°32' E 009°55'0 0.0
2017-Nov-12 09:30N 53°32' E 009°55'0 0.0
2017-Nov-12 09:00N 53°32' E 009°55'0 0.0
2017-Nov-12 08:30N 53°32' E 009°55'0 0.0
2017-Nov-12 08:00N 53°32' E 009°55'0 0.0
2017-Nov-12 07:30N 53°32' E 009°55'0 0.0
2017-Nov-12 06:59N 53°32' E 009°55'0 0.0
2017-Nov-12 06:29N 53°32' E 009°55'0 0.0
2017-Nov-12 05:59N 53°32' E 009°55'0 0.0
2017-Nov-12 05:29N 53°32' E 009°55'0 0.0
2017-Nov-12 04:58N 53°32' E 009°55'0 0.0
2017-Nov-12 04:28N 53°32' E 009°55'0 0.0
2017-Nov-12 03:58N 53°32' E 009°55'0 0.0
2017-Nov-12 03:28N 53°32' E 009°55'0 0.0
2017-Nov-12 03:00N 53°32' E 009°55'0 0.0
2017-Nov-12 02:30N 53°32' E 009°55'0 0.0
2017-Nov-12 02:00N 53°32' E 009°55'0 0.0
2017-Nov-12 01:27N 53°32' E 009°55'0 0.0
2017-Nov-12 00:59N 53°32' E 009°55'0 0.0
2017-Nov-12 00:29N 53°32' E 009°55'0 0.0
2017-Nov-11 23:59N 53°32' E 009°55'0 0.0
2017-Nov-11 23:29N 53°32' E 009°55'0 0.0
2017-Nov-11 22:59N 53°32' E 009°55'0 0.0
2017-Nov-11 22:28N 53°32' E 009°55'0 0.0
2017-Nov-11 21:58N 53°32' E 009°55'0 0.0
2017-Nov-11 21:28N 53°32' E 009°55'0 0.0
2017-Nov-11 20:58N 53°32' E 009°55'0 0.0
2017-Nov-11 20:31N 53°32' E 009°55'0 0.0
2017-Nov-11 20:00N 53°32' E 009°55'0 0.0
2017-Nov-11 19:30N 53°32' E 009°55'0 0.0
2017-Nov-11 19:00N 53°32' E 009°55'0 0.0
2017-Nov-11 18:30N 53°32' E 009°55'1 1.5
2017-Nov-11 18:01N 53°32' E 009°54'2 3.2
2017-Nov-11 17:30N 53°32' E 009°57'0 0.0
2017-Nov-11 16:58N 53°32' E 009°57'0 0.0
2017-Nov-11 16:28N 53°32' E 009°57'0 0.0
2017-Nov-11 15:58N 53°32' E 009°57'0 0.0
2017-Nov-11 15:28N 53°32' E 009°57'0 0.0
2017-Nov-11 14:58N 53°32' E 009°57'0 0.0
2017-Nov-11 14:30N 53°32' E 009°57'0 0.0
2017-Nov-11 14:00N 53°32' E 009°57'0 0.0
2017-Nov-11 13:30N 53°32' E 009°57'0 0.0
2017-Nov-11 13:00N 53°32' E 009°57'0 0.0
2017-Nov-11 12:30N 53°32' E 009°57'0 0.0
2017-Nov-11 11:59N 53°32' E 009°57'0 0.0
2017-Nov-11 11:29N 53°32' E 009°57'0 0.0
2017-Nov-11 10:59N 53°32' E 009°57'0 0.0
2017-Nov-11 10:29N 53°32' E 009°57'0 0.0
2017-Nov-11 09:58N 53°32' E 009°57'0 0.7
2017-Nov-11 09:28N 53°32' E 009°57'0 0.4
2017-Nov-11 08:58N 53°32' E 009°58'0 0.0
2017-Nov-11 08:30N 53°32' E 009°58'0 0.0
2017-Nov-11 08:00N 53°32' E 009°58'0 0.0
2017-Nov-11 07:30N 53°32' E 009°58'0 0.0
2017-Nov-11 07:00N 53°32' E 009°58'0 0.0
2017-Nov-11 06:30N 53°32' E 009°58'0 0.0
2017-Nov-11 05:59N 53°32' E 009°58'0 0.0
2017-Nov-11 05:29N 53°32' E 009°58'0 0.0
2017-Nov-11 04:59N 53°32' E 009°58'0 0.0
2017-Nov-11 04:29N 53°32' E 009°58'0 0.0
2017-Nov-11 03:58N 53°32' E 009°58'0 0.0
2017-Nov-11 03:28N 53°32' E 009°58'0 0.0
2017-Nov-11 02:58N 53°32' E 009°58'0 0.0
2017-Nov-11 02:28N 53°32' E 009°58'0 0.0
2017-Nov-11 01:58N 53°32' E 009°58'0 0.0
2017-Nov-11 01:30N 53°32' E 009°58'0 0.0
2017-Nov-11 01:00N 53°32' E 009°58'0 0.0
2017-Nov-11 00:30N 53°32' E 009°58'0 0.0
2017-Nov-11 00:00N 53°32' E 009°58'0 0.0
2017-Nov-10 23:30N 53°32' E 009°58'1 2.5
2017-Nov-10 23:00N 53°32' E 009°56'2 4.7
2017-Nov-10 22:30N 53°30' E 009°56'0 0.0
2017-Nov-10 21:59N 53°30' E 009°56'0 0.0
2017-Nov-10 21:29N 53°30' E 009°56'0 0.0
2017-Nov-10 20:58N 53°30' E 009°56'0 0.0
2017-Nov-10 20:25N 53°30' E 009°56'0 0.0
2017-Nov-10 19:58N 53°30' E 009°56'0 0.0
2017-Nov-10 19:28N 53°30' E 009°56'0 0.0
2017-Nov-10 19:00N 53°30' E 009°56'0 0.0
2017-Nov-10 18:30N 53°30' E 009°56'0 0.0
2017-Nov-10 18:00N 53°30' E 009°56'1 3.0
2017-Nov-10 17:30N 53°32' E 009°56'5 9.5
2017-Nov-10 17:00N 53°33' E 009°49'611.8
2017-Nov-10 16:30N 53°34' E 009°39'611.9
2017-Nov-10 16:00N 53°38' E 009°32'611.6
2017-Nov-10 15:30N 53°44' E 009°27'611.4
2017-Nov-10 15:00N 53°48' E 009°22'611.8
2017-Nov-10 14:30N 53°52' E 009°15'4 8.0
2017-Nov-10 14:01N 53°54' E 009°09'0 0.0
2017-Nov-10 13:30N 53°54' E 009°09'1 1.9
2017-Nov-10 13:00N 53°54' E 009°10'3 6.4
2017-Nov-10 12:30N 53°57' E 009°13'2 4.4
2017-Nov-10 12:00N 53°58' E 009°16'4 8.1
2017-Nov-10 11:30N 54°02' E 009°18'4 8.2
2017-Nov-10 11:00N 54°06' E 009°20'4 7.4
2017-Nov-10 10:30N 54°09' E 009°23'4 8.3
2017-Nov-10 10:00N 54°11' E 009°29'4 7.9
2017-Nov-10 09:30N 54°13' E 009°35'4 7.6
2017-Nov-10 09:00N 54°16' E 009°38'4 7.3
2017-Nov-10 08:30N 54°19' E 009°43'4 8.1
2017-Nov-10 08:00N 54°22' E 009°47'  
Track history (hours):
 
Tides and Currents Weather Stations Pressure Air Temp Water Temp Dewpoint Dewpoint Depression Visibility Wind Speed Wind Dir Waves Ship Positions

Ruth

Last reported at 2017-Nov-19 20:16 UTC. Time now 2017-Nov-20 12:09 UTC.
Position N 55°08' E 014°08'.

Length 134 m; draft 8.9 m.

Type: Ship (hazmat cat A). MMSI: 212613000.

Date/timePositionNaut miles runAvg speedWind from/ knotsBaromVisibWave heightAir tempDewpointWater temp
2017-Nov-19 20:16N 55°08' E 014°08'414.3
2017-Nov-19 20:00N 55°11' E 014°12'914.8
2017-Nov-19 19:25N 55°17' E 014°22'615.3
2017-Nov-19 19:00N 55°22' E 014°29'815.7
2017-Nov-19 18:30N 55°27' E 014°40'915.6
2017-Nov-19 17:55N 55°32' E 014°54'715.7
2017-Nov-19 17:30N 55°35' E 015°04'815.8
2017-Nov-19 17:00N 55°39' E 015°16'815.9
2017-Nov-19 16:31N 55°44' E 015°27'815.9
2017-Nov-19 16:00N 55°48' E 015°39'815.8
2017-Nov-19 15:31N 55°52' E 015°52'815.9
2017-Nov-19 15:01N 55°56' E 016°04'815.9
2017-Nov-19 14:31N 55°60' E 016°16'816.0
2017-Nov-19 14:01N 56°04' E 016°29'816.0
2017-Nov-19 13:31N 56°08' E 016°41'815.5
2017-Nov-19 13:00N 56°15' E 016°47'22815.8
2017-Nov-18 22:33N 59°42' E 019°48'216.3
2017-Nov-18 22:27N 59°43' E 019°46'816.4
2017-Nov-18 21:59N 59°49' E 019°36'816.6
2017-Nov-18 21:30N 59°55' E 019°26'816.7
2017-Nov-18 21:00N 60°02' E 019°15'816.7
2017-Nov-18 20:31N 60°08' E 019°04'815.5
2017-Nov-18 20:00N 60°16' E 018°60'916.6
2017-Nov-18 19:30N 60°24' E 018°59'7015.5
2017-Nov-18 14:59N 61°06' E 020°54'714.1
2017-Nov-18 14:31N 61°08' E 021°07'611.7
2017-Nov-18 14:00N 61°06' E 021°19'4 8.1
2017-Nov-18 13:30N 61°08' E 021°26'0 0.0
2017-Nov-18 12:52N 61°08' E 021°26'0 0.0
2017-Nov-18 12:17N 61°08' E 021°26'0 0.0
2017-Nov-18 11:58N 61°08' E 021°26'0 0.0
2017-Nov-18 10:54N 61°08' E 021°26'0 0.0
2017-Nov-18 10:23N 61°08' E 021°26'0 0.0
2017-Nov-18 09:59N 61°08' E 021°26'0 0.0
2017-Nov-18 09:23N 61°08' E 021°26'0 0.0
2017-Nov-18 08:56N 61°08' E 021°26'0 0.0
2017-Nov-18 08:29N 61°08' E 021°26'0 0.0
2017-Nov-18 07:59N 61°08' E 021°26'0 0.0
2017-Nov-18 07:25N 61°08' E 021°26'0 0.0
2017-Nov-18 06:55N 61°08' E 021°26'0 0.0
2017-Nov-18 06:19N 61°08' E 021°26'0 0.0
2017-Nov-18 05:49N 61°08' E 021°26'0 0.0
2017-Nov-18 05:28N 61°08' E 021°26'0 0.0
2017-Nov-18 03:54N 61°08' E 021°26'0 0.0
2017-Nov-18 03:30N 61°08' E 021°26'0 0.0
2017-Nov-18 02:41N 61°08' E 021°26'0 0.0
2017-Nov-18 02:29N 61°08' E 021°26'0 0.0
2017-Nov-18 01:41N 61°08' E 021°26'0 0.0
2017-Nov-18 01:20N 61°08' E 021°26'0 0.0
2017-Nov-18 00:56N 61°08' E 021°26'0 0.0
2017-Nov-18 00:28N 61°08' E 021°26'0 0.0
2017-Nov-17 23:50N 61°08' E 021°26'0 0.0
2017-Nov-17 23:13N 61°08' E 021°26'0 0.0
2017-Nov-17 22:58N 61°08' E 021°26'0 0.3
2017-Nov-17 22:30N 61°08' E 021°26'2 3.9
2017-Nov-17 22:00N 61°07' E 021°23'611.7
2017-Nov-17 21:30N 61°07' E 021°11'612.0
2017-Nov-17 21:00N 61°08' E 020°58'6914.6
2017-Nov-17 16:19N 60°29' E 019°02'414.7
2017-Nov-17 16:00N 60°25' E 019°02'714.6
2017-Nov-17 15:30N 60°17' E 019°01'713.7
2017-Nov-17 15:00N 60°11' E 019°07'713.8
2017-Nov-17 14:30N 60°06' E 019°17'714.1
2017-Nov-17 14:00N 60°01' E 019°26'813.5
2017-Nov-17 13:27N 59°55' E 019°36'612.5
2017-Nov-17 13:00N 59°50' E 019°41'3911.0
2017-Nov-17 09:27N 59°36' E 020°53'511.5
2017-Nov-17 09:00N 59°36' E 021°03'611.3
2017-Nov-17 08:30N 59°35' E 021°15'511.0
2017-Nov-17 08:00N 59°35' E 021°25'611.1
2017-Nov-17 07:30N 59°34' E 021°36'511.0
2017-Nov-17 07:00N 59°34' E 021°47'510.9
2017-Nov-17 06:30N 59°34' E 021°58'510.9
2017-Nov-17 06:00N 59°33' E 022°09'510.8
2017-Nov-17 05:30N 59°33' E 022°19'2411.3
2017-Nov-17 03:25N 59°38' E 023°05'512.3
2017-Nov-17 03:00N 59°39' E 023°15'612.4
2017-Nov-17 02:30N 59°41' E 023°26'612.4
2017-Nov-17 02:00N 59°42' E 023°38'612.5
2017-Nov-17 01:30N 59°44' E 023°50'712.5
2017-Nov-17 00:56N 59°46' E 024°04'712.5
2017-Nov-17 00:21N 59°47' E 024°18'412.7
2017-Nov-17 00:00N 59°48' E 024°27'612.5
2017-Nov-16 23:30N 59°49' E 024°39'612.4
2017-Nov-16 23:00N 59°51' E 024°51'612.6
2017-Nov-16 22:30N 59°52' E 025°03'612.8
2017-Nov-16 22:00N 59°53' E 025°16'612.7
2017-Nov-16 21:30N 59°54' E 025°28'2213.0
2017-Nov-16 19:47N 59°59' E 026°12'413.4
2017-Nov-16 19:30N 59°60' E 026°19'713.4
2017-Nov-16 19:00N 60°01' E 026°32'713.2
2017-Nov-16 18:30N 60°01' E 026°45'713.2
2017-Nov-16 18:00N 59°60' E 026°58'612.6
2017-Nov-16 17:30N 60°02' E 027°10'713.1
2017-Nov-16 17:00N 60°05' E 027°22'713.2
2017-Nov-16 16:30N 60°08' E 027°33'713.0
2017-Nov-16 16:00N 60°12' E 027°44'612.5
2017-Nov-16 15:30N 60°11' E 027°57'612.9
2017-Nov-16 15:00N 60°09' E 028°09'612.7
2017-Nov-16 14:30N 60°07' E 028°21'612.6
2017-Nov-16 14:00N 60°03' E 028°32'612.4
2017-Nov-16 13:30N 60°03' E 028°44'714.5
2017-Nov-16 13:00N 60°03' E 028°59'1512.6
2017-Nov-16 11:50N 60°01' E 029°28'410.4
2017-Nov-16 11:24N 60°00' E 029°37'511.5
2017-Nov-16 11:00N 59°59' E 029°45'611.7
2017-Nov-16 10:30N 59°56' E 029°56'611.5
2017-Nov-16 10:00N 59°54' E 030°06'3 6.8
2017-Nov-16 09:31N 59°52' E 030°12'0 0.0
2017-Nov-16 09:00N 59°52' E 030°12'0 0.0
2017-Nov-16 08:29N 59°52' E 030°12'0 0.0
2017-Nov-16 08:00N 59°52' E 030°12'0 0.0
2017-Nov-16 07:30N 59°52' E 030°12'0 0.0
2017-Nov-16 07:00N 59°52' E 030°12'0 0.0
2017-Nov-16 06:30N 59°52' E 030°12'0 0.0
2017-Nov-16 06:00N 59°52' E 030°12'0 0.0
2017-Nov-16 05:30N 59°52' E 030°12'0 0.0
2017-Nov-16 04:59N 59°52' E 030°12'0 0.0
2017-Nov-16 04:26N 59°52' E 030°12'0 0.0
2017-Nov-16 03:59N 59°52' E 030°12'0 0.0
2017-Nov-16 03:30N 59°52' E 030°12'1 1.8
2017-Nov-16 03:00N 59°53' E 030°11'3 6.7
2017-Nov-16 02:30N 59°54' E 030°05'510.9
2017-Nov-16 02:00N 59°56' E 029°55'510.0
2017-Nov-16 01:30N 59°59' E 029°46'3 6.0
2017-Nov-16 01:00N 59°56' E 029°42'0 0.3
2017-Nov-16 00:30N 59°56' E 029°42'0 0.0
2017-Nov-15 23:59N 59°56' E 029°42'0 0.0
2017-Nov-15 23:29N 59°56' E 029°42'0 0.0
2017-Nov-15 22:59N 59°56' E 029°42'0 0.0
2017-Nov-15 22:29N 59°56' E 029°42'0 0.0
2017-Nov-15 21:56N 59°56' E 029°42'0 0.0
2017-Nov-15 21:28N 59°56' E 029°42'0 0.0
2017-Nov-15 20:58N 59°56' E 029°42'0 0.0
2017-Nov-15 20:25N 59°56' E 029°42'0 0.0
2017-Nov-15 19:43N 59°56' E 029°42'0 0.0
2017-Nov-15 19:28N 59°56' E 029°42'0 0.0
2017-Nov-15 18:39N 59°56' E 029°42'0 0.0
2017-Nov-15 18:27N 59°56' E 029°42'0 0.0
2017-Nov-15 17:54N 59°56' E 029°42'0 0.0
2017-Nov-15 17:18N 59°56' E 029°42'0 0.0
2017-Nov-15 16:56N 59°56' E 029°42'0 0.0
2017-Nov-15 16:29N 59°56' E 029°42'0 0.0
2017-Nov-15 15:59N 59°56' E 029°42'0 0.0
2017-Nov-15 15:30N 59°56' E 029°42'2 3.6
2017-Nov-15 15:00N 59°58' E 029°44'4 7.3
2017-Nov-15 14:30N 59°60' E 029°39'1613.0
2017-Nov-15 13:19N 60°02' E 029°08'414.8
2017-Nov-15 13:00N 60°02' E 028°59'714.6
2017-Nov-15 12:30N 60°02' E 028°44'714.6
2017-Nov-15 12:00N 60°02' E 028°30'714.2
2017-Nov-15 11:30N 60°06' E 028°18'714.2
2017-Nov-15 11:00N 60°09' E 028°04'714.5
2017-Nov-15 10:30N 60°10' E 027°50'713.3
2017-Nov-15 10:00N 60°08' E 027°38'714.4
2017-Nov-15 09:30N 60°04' E 027°25'714.4
2017-Nov-15 09:00N 60°00' E 027°13'713.7
2017-Nov-15 08:30N 59°58' E 027°00'714.4
2017-Nov-15 08:00N 59°59' E 026°46'713.9
2017-Nov-15 07:30N 59°58' E 026°32'714.7
2017-Nov-15 07:00N 59°56' E 026°18'2714.9
2017-Nov-15 05:11N 59°49' E 025°26'314.7
2017-Nov-15 05:00N 59°49' E 025°21'714.8
2017-Nov-15 04:30N 59°47' E 025°06'714.7
2017-Nov-15 04:00N 59°46' E 024°52'714.9
2017-Nov-15 03:30N 59°44' E 024°38'815.0
2017-Nov-15 03:00N 59°43' E 024°23'714.9
2017-Nov-15 02:30N 59°40' E 024°09'814.8
2017-Nov-15 01:56N 59°38' E 023°53'714.8
2017-Nov-15 01:26N 59°35' E 023°39'614.5
2017-Nov-15 01:00N 59°33' E 023°28'1414.7
2017-Nov-15 00:04N 59°29' E 023°02'27214.9
2017-Nov-14 05:49N 56°13' E 017°08'1115.6
2017-Nov-14 05:06N 56°06' E 016°52'215.5
2017-Nov-14 04:59N 56°05' E 016°50'715.6
2017-Nov-14 04:30N 56°00' E 016°39'815.6
2017-Nov-14 04:00N 55°57' E 016°27'815.4
2017-Nov-14 03:30N 55°53' E 016°15'815.4
2017-Nov-14 03:00N 55°49' E 016°03'815.5
2017-Nov-14 02:30N 55°46' E 015°51'815.4
2017-Nov-14 02:00N 55°42' E 015°39'815.5
2017-Nov-14 01:30N 55°38' E 015°26'815.6
2017-Nov-14 01:00N 55°35' E 015°14'815.6
2017-Nov-14 00:30N 55°31' E 015°02'815.5
2017-Nov-14 00:00N 55°27' E 014°50'815.3
2017-Nov-13 23:30N 55°23' E 014°39'815.3
2017-Nov-13 23:00N 55°17' E 014°31'714.7
2017-Nov-13 22:30N 55°12' E 014°23'815.1
2017-Nov-13 22:00N 55°06' E 014°14'186 9.3
2017-Nov-13 02:01N 53°48' E 009°23'816.5
2017-Nov-13 01:30N 53°41' E 009°30'714.7
2017-Nov-13 01:01N 53°35' E 009°37'713.5
2017-Nov-13 00:31N 53°33' E 009°48'4 8.7
2017-Nov-13 00:00N 53°32' E 009°55'0 0.9
2017-Nov-12 23:30N 53°32' E 009°55'0 0.0
2017-Nov-12 23:00N 53°32' E 009°55'0 0.0
2017-Nov-12 22:30N 53°32' E 009°55'0 0.0
2017-Nov-12 22:00N 53°32' E 009°55'0 0.0
2017-Nov-12 21:29N 53°32' E 009°55'0 0.0
2017-Nov-12 20:59N 53°32' E 009°55'0 0.0
2017-Nov-12 20:29N 53°32' E 009°55'0 0.0
2017-Nov-12 19:59N 53°32' E 009°55'0 0.0
2017-Nov-12 19:29N 53°32' E 009°55'0 0.0
2017-Nov-12 18:58N 53°32' E 009°55'0 0.0
2017-Nov-12 18:28N 53°32' E 009°55'0 0.0
2017-Nov-12 17:58N 53°32' E 009°55'0 0.0
2017-Nov-12 17:28N 53°32' E 009°55'0 0.0
2017-Nov-12 17:00N 53°32' E 009°55'0 0.0
2017-Nov-12 16:30N 53°32' E 009°55'0 0.0
2017-Nov-12 16:00N 53°32' E 009°55'0 0.0
2017-Nov-12 15:30N 53°32' E 009°55'0 0.0
2017-Nov-12 15:00N 53°32' E 009°55'0 0.0
2017-Nov-12 14:29N 53°32' E 009°55'0 0.0
2017-Nov-12 13:59N 53°32' E 009°55'0 0.0
2017-Nov-12 13:29N 53°32' E 009°55'0 0.0
2017-Nov-12 12:59N 53°32' E 009°55'0 0.0
2017-Nov-12 12:29N 53°32' E 009°55'0 0.0
2017-Nov-12 11:58N 53°32' E 009°55'0 0.0
2017-Nov-12 11:28N 53°32' E 009°55'0 0.0
2017-Nov-12 10:58N 53°32' E 009°55'0 0.0
2017-Nov-12 10:28N 53°32' E 009°55'0 0.0
2017-Nov-12 10:00N 53°32' E 009°55'0 0.0
2017-Nov-12 09:30N 53°32' E 009°55'0 0.0
2017-Nov-12 09:00N 53°32' E 009°55'0 0.0
2017-Nov-12 08:30N 53°32' E 009°55'0 0.0
2017-Nov-12 08:00N 53°32' E 009°55'0 0.0
2017-Nov-12 07:30N 53°32' E 009°55'0 0.0
2017-Nov-12 06:59N 53°32' E 009°55'0 0.0
2017-Nov-12 06:29N 53°32' E 009°55'0 0.0
2017-Nov-12 05:59N 53°32' E 009°55'0 0.0
2017-Nov-12 05:29N 53°32' E 009°55'0 0.0
2017-Nov-12 04:58N 53°32' E 009°55'0 0.0
2017-Nov-12 04:28N 53°32' E 009°55'0 0.0
2017-Nov-12 03:58N 53°32' E 009°55'0 0.0
2017-Nov-12 03:28N 53°32' E 009°55'0 0.0
2017-Nov-12 03:00N 53°32' E 009°55'0 0.0
2017-Nov-12 02:30N 53°32' E 009°55'0 0.0
2017-Nov-12 02:00N 53°32' E 009°55'0 0.0
2017-Nov-12 01:27N 53°32' E 009°55'0 0.0
2017-Nov-12 00:59N 53°32' E 009°55'0 0.0
2017-Nov-12 00:29N 53°32' E 009°55'0 0.0
2017-Nov-11 23:59N 53°32' E 009°55'0 0.0
2017-Nov-11 23:29N 53°32' E 009°55'0 0.0
2017-Nov-11 22:59N 53°32' E 009°55'0 0.0
2017-Nov-11 22:28N 53°32' E 009°55'0 0.0
2017-Nov-11 21:58N 53°32' E 009°55'0 0.0
2017-Nov-11 21:28N 53°32' E 009°55'0 0.0
2017-Nov-11 20:58N 53°32' E 009°55'0 0.0
2017-Nov-11 20:31N 53°32' E 009°55'0 0.0
2017-Nov-11 20:00N 53°32' E 009°55'0 0.0
2017-Nov-11 19:30N 53°32' E 009°55'0 0.0
2017-Nov-11 19:00N 53°32' E 009°55'0 0.0
2017-Nov-11 18:30N 53°32' E 009°55'1 1.5
2017-Nov-11 18:01N 53°32' E 009°54'2 3.2
2017-Nov-11 17:30N 53°32' E 009°57'0 0.0
2017-Nov-11 16:58N 53°32' E 009°57'0 0.0
2017-Nov-11 16:28N 53°32' E 009°57'0 0.0
2017-Nov-11 15:58N 53°32' E 009°57'0 0.0
2017-Nov-11 15:28N 53°32' E 009°57'0 0.0
2017-Nov-11 14:58N 53°32' E 009°57'0 0.0
2017-Nov-11 14:30N 53°32' E 009°57'0 0.0
2017-Nov-11 14:00N 53°32' E 009°57'0 0.0
2017-Nov-11 13:30N 53°32' E 009°57'0 0.0
2017-Nov-11 13:00N 53°32' E 009°57'0 0.0
2017-Nov-11 12:30N 53°32' E 009°57'0 0.0
2017-Nov-11 11:59N 53°32' E 009°57'0 0.0
2017-Nov-11 11:29N 53°32' E 009°57'0 0.0
2017-Nov-11 10:59N 53°32' E 009°57'0 0.0
2017-Nov-11 10:29N 53°32' E 009°57'0 0.0
2017-Nov-11 09:58N 53°32' E 009°57'0 0.7
2017-Nov-11 09:28N 53°32' E 009°57'0 0.4
2017-Nov-11 08:58N 53°32' E 009°58'0 0.0
2017-Nov-11 08:30N 53°32' E 009°58'0 0.0
2017-Nov-11 08:00N 53°32' E 009°58'0 0.0
2017-Nov-11 07:30N 53°32' E 009°58'0 0.0
2017-Nov-11 07:00N 53°32' E 009°58'0 0.0
2017-Nov-11 06:30N 53°32' E 009°58'0 0.0
2017-Nov-11 05:59N 53°32' E 009°58'0 0.0
2017-Nov-11 05:29N 53°32' E 009°58'0 0.0
2017-Nov-11 04:59N 53°32' E 009°58'0 0.0
2017-Nov-11 04:29N 53°32' E 009°58'0 0.0
2017-Nov-11 03:58N 53°32' E 009°58'0 0.0
2017-Nov-11 03:28N 53°32' E 009°58'0 0.0
2017-Nov-11 02:58N 53°32' E 009°58'0 0.0
2017-Nov-11 02:28N 53°32' E 009°58'0 0.0
2017-Nov-11 01:58N 53°32' E 009°58'0 0.0
2017-Nov-11 01:30N 53°32' E 009°58'0 0.0
2017-Nov-11 01:00N 53°32' E 009°58'0 0.0
2017-Nov-11 00:30N 53°32' E 009°58'0 0.0
2017-Nov-11 00:00N 53°32' E 009°58'0 0.0
2017-Nov-10 23:30N 53°32' E 009°58'1 2.5
2017-Nov-10 23:00N 53°32' E 009°56'2 4.7
2017-Nov-10 22:30N 53°30' E 009°56'0 0.0
2017-Nov-10 21:59N 53°30' E 009°56'0 0.0
2017-Nov-10 21:29N 53°30' E 009°56'0 0.0
2017-Nov-10 20:58N 53°30' E 009°56'0 0.0
2017-Nov-10 20:25N 53°30' E 009°56'0 0.0
2017-Nov-10 19:58N 53°30' E 009°56'0 0.0
2017-Nov-10 19:28N 53°30' E 009°56'0 0.0
2017-Nov-10 19:00N 53°30' E 009°56'0 0.0
2017-Nov-10 18:30N 53°30' E 009°56'0 0.0
2017-Nov-10 18:00N 53°30' E 009°56'1 3.0
2017-Nov-10 17:30N 53°32' E 009°56'5 9.5
2017-Nov-10 17:00N 53°33' E 009°49'611.8
2017-Nov-10 16:30N 53°34' E 009°39'611.9
2017-Nov-10 16:00N 53°38' E 009°32'611.6
2017-Nov-10 15:30N 53°44' E 009°27'611.4
2017-Nov-10 15:00N 53°48' E 009°22'611.8
2017-Nov-10 14:30N 53°52' E 009°15'4 8.0
2017-Nov-10 14:01N 53°54' E 009°09'0 0.0
2017-Nov-10 13:30N 53°54' E 009°09'1 1.9
2017-Nov-10 13:00N 53°54' E 009°10'3 6.4
2017-Nov-10 12:30N 53°57' E 009°13'2 4.4
2017-Nov-10 12:00N 53°58' E 009°16'4 8.1
2017-Nov-10 11:30N 54°02' E 009°18'4 8.2
2017-Nov-10 11:00N 54°06' E 009°20'4 7.4
2017-Nov-10 10:30N 54°09' E 009°23'4 8.3
2017-Nov-10 10:00N 54°11' E 009°29'4 7.9
2017-Nov-10 09:30N 54°13' E 009°35'4 7.6
2017-Nov-10 09:00N 54°16' E 009°38'4 7.3
2017-Nov-10 08:30N 54°19' E 009°43'4 8.1
2017-Nov-10 08:00N 54°22' E 009°47'  

Dump ship's entire track history